Terminal Aerodrome Forecast
Issued by NWS

Home | Current Version | Previous Version | Text Only | Print | Product List | Glossary On
Versions: 1 2 3 4 5 6 7 8 9 10 11 12 13 14
000
FTUS42 KTAE 230520
TAFABY
TAF
KABY 230520Z 2306/2406 09004KT 6SM -TSRA SCT040CB BKN070
      TEMPO 2306/2310 VRB15G25KT 2SM +TSRA BKN012CB OVC040
     FM231700 29011KT P6SM SCT030=

USA.gov is the U.S. government's official web portal to all federal, state and local government web resources and services.